createdAt,value
2018-06-03T00:02:13.807Z,6.93
2018-06-03T00:04:41.259Z,6.50
2018-06-03T00:07:09.504Z,6.85
2018-06-03T00:09:38.082Z,6.72
2018-06-03T00:12:05.528Z,6.80
2018-06-03T00:14:32.998Z,6.55
2018-06-03T00:17:00.487Z,5.85
2018-06-03T00:19:28.699Z,6.53
2018-06-03T00:21:56.190Z,6.72
2018-06-03T00:24:24.055Z,5.85
2018-06-03T00:26:51.500Z,5.97
2018-06-03T00:29:18.990Z,5.90
2018-06-03T00:31:47.350Z,6.65
2018-06-03T00:34:14.806Z,5.90
2018-06-03T00:36:43.164Z,5.97
2018-06-03T00:39:10.730Z,5.90
2018-06-03T00:41:38.187Z,5.35
2018-06-03T00:44:05.667Z,5.65
2018-06-03T00:46:33.419Z,5.45
2018-06-03T00:49:00.880Z,5.15
2018-06-03T00:51:28.327Z,4.75
2018-06-03T00:53:56.415Z,5.37
2018-06-03T00:56:36.411Z,5.37
2018-06-03T00:59:04.438Z,5.20
2018-06-03T01:01:31.888Z,5.05
2018-06-03T01:03:59.338Z,4.50
2018-06-03T01:06:26.915Z,5.00
2018-06-03T01:08:55.797Z,5.15
2018-06-03T01:11:23.241Z,5.15
2018-06-03T01:13:50.933Z,5.12
2018-06-03T01:16:18.365Z,4.60
2018-06-03T01:18:45.834Z,5.18
2018-06-03T01:21:13.493Z,4.75
2018-06-03T01:23:40.954Z,4.45
2018-06-03T01:26:08.404Z,4.62
2018-06-03T01:28:36.792Z,4.15
2018-06-03T01:31:04.245Z,5.43
2018-06-03T01:33:31.687Z,3.80
2018-06-03T01:35:59.194Z,3.87
2018-06-03T01:38:27.406Z,3.50
2018-06-03T01:40:54.854Z,3.80
2018-06-03T01:43:22.361Z,4.40
2018-06-03T01:45:49.810Z,4.15
2018-06-03T01:48:17.268Z,4.07
2018-06-03T01:50:45.551Z,4.40
2018-06-03T01:53:13.023Z,3.50
2018-06-03T01:55:40.470Z,4.05
2018-06-03T01:58:08.433Z,3.97
2018-06-03T02:00:35.893Z,4.18
2018-06-03T02:03:03.355Z,3.33
2018-06-03T02:05:31.067Z,3.90
2018-06-03T02:08:00.007Z,3.50
2018-06-03T02:10:27.464Z,3.90
2018-06-03T02:12:55.127Z,3.25
2018-06-03T02:15:22.571Z,3.60
2018-06-03T02:17:50.019Z,3.28
2018-06-03T02:20:17.499Z,3.15
2018-06-03T02:22:44.958Z,3.03
2018-06-03T02:25:12.409Z,3.08
2018-06-03T02:27:41.002Z,3.35
2018-06-03T02:30:08.453Z,3.00
2018-06-03T02:32:35.906Z,4.00
2018-06-03T02:35:04.503Z,4.50
2018-06-03T02:37:31.959Z,4.15
2018-06-03T02:39:59.402Z,3.75
2018-06-03T02:42:26.975Z,2.90
2018-06-03T02:44:54.418Z,2.83
2018-06-03T02:47:21.875Z,3.03
2018-06-03T02:49:50.371Z,2.90
2018-06-03T02:52:17.828Z,2.78
2018-06-03T02:54:45.280Z,3.65
2018-06-03T02:57:15.198Z,4.57
2018-06-03T02:59:42.650Z,2.83
2018-06-03T03:02:10.090Z,4.12
2018-06-03T03:04:37.993Z,2.97
2018-06-03T03:07:05.550Z,2.65
2018-06-03T03:09:34.515Z,2.80
2018-06-03T03:12:02.050Z,2.85
2018-06-03T03:14:29.486Z,2.83
2018-06-03T03:16:57.718Z,2.40
2018-06-03T03:19:25.398Z,2.97
2018-06-03T03:21:52.950Z,3.00
2018-06-03T03:24:20.409Z,2.92
2018-06-03T03:26:48.535Z,2.42
2018-06-03T03:29:16.039Z,2.65
2018-06-03T03:31:43.487Z,2.67
2018-06-03T03:34:11.072Z,2.42
2018-06-03T03:36:38.519Z,2.97
2018-06-03T03:39:05.981Z,2.50
2018-06-03T03:41:33.463Z,2.30
2018-06-03T03:44:01.682Z,2.65
2018-06-03T03:46:29.130Z,2.45
2018-06-03T03:48:57.152Z,2.15
2018-06-03T03:51:24.698Z,2.30
2018-06-03T03:53:52.262Z,2.50
2018-06-03T03:56:20.122Z,2.50
2018-06-03T03:58:47.684Z,2.70
2018-06-03T04:01:15.137Z,1.90
2018-06-03T04:03:42.702Z,2.30
2018-06-03T04:06:10.171Z,2.78
2018-06-03T04:08:39.254Z,3.75
2018-06-03T04:11:07.224Z,2.90
2018-06-03T04:13:34.678Z,2.35
2018-06-03T04:16:02.142Z,2.05
2018-06-03T04:18:30.309Z,2.40
2018-06-03T04:20:57.774Z,2.95
2018-06-03T04:23:25.230Z,2.80
2018-06-03T04:25:53.392Z,2.37
2018-06-03T04:28:20.862Z,2.35
2018-06-03T04:30:48.311Z,2.12
2018-06-03T04:33:16.716Z,2.33
2018-06-03T04:35:44.157Z,2.78
2018-06-03T04:38:11.723Z,2.17
2018-06-03T04:40:39.374Z,2.15
2018-06-03T04:43:06.822Z,2.50
2018-06-03T04:45:34.276Z,2.78
2018-06-03T04:48:02.558Z,2.60
2018-06-03T04:50:30.014Z,2.17
2018-06-03T04:52:57.488Z,2.95
2018-06-03T04:55:25.162Z,2.50
2018-06-03T04:57:52.611Z,1.95
2018-06-03T05:00:20.053Z,2.72
2018-06-03T05:02:47.627Z,1.98
2018-06-03T05:05:15.071Z,2.50
2018-06-03T05:07:46.526Z,1.80
2018-06-03T05:10:14.097Z,2.17
2018-06-03T05:12:41.652Z,2.55
2018-06-03T05:15:09.099Z,2.10
2018-06-03T05:17:36.778Z,1.83
2018-06-03T05:20:04.226Z,3.40
2018-06-03T05:22:31.694Z,2.20
2018-06-03T05:24:59.764Z,1.92
2018-06-03T05:27:27.218Z,2.97
2018-06-03T05:29:54.660Z,2.10
2018-06-03T05:32:22.255Z,2.25
2018-06-03T05:34:49.706Z,1.90
2018-06-03T05:37:17.979Z,1.87
2018-06-03T05:39:45.533Z,2.72
2018-06-03T05:42:12.987Z,1.92
2018-06-03T05:44:40.430Z,2.10
2018-06-03T05:47:09.339Z,1.87
2018-06-03T05:49:36.782Z,3.75
2018-06-03T05:52:04.239Z,10.70
2018-06-03T05:54:32.119Z,4.50
2018-06-03T05:56:59.561Z,7.93
2018-06-03T05:59:27.017Z,8.25
2018-06-03T06:01:54.803Z,5.70
2018-06-03T06:04:22.255Z,5.30
2018-06-03T06:06:49.714Z,5.55
2018-06-03T06:09:19.742Z,9.88
2018-06-03T06:11:47.227Z,7.55
2018-06-03T06:14:15.442Z,7.50
2018-06-03T06:16:46.368Z,8.70
2018-06-03T06:19:13.833Z,10.80
2018-06-03T06:21:41.318Z,7.55
2018-06-03T06:24:09.094Z,8.43
2018-06-03T06:26:36.647Z,8.25
2018-06-03T06:29:04.096Z,11.88
2018-06-03T06:31:32.267Z,12.37
2018-06-03T06:33:59.726Z,8.98
2018-06-03T06:36:27.303Z,15.32
2018-06-03T06:38:56.587Z,7.15
2018-06-03T06:41:24.038Z,22.37
2018-06-03T06:43:51.491Z,19.30
2018-06-03T06:46:19.025Z,13.52
2018-06-03T06:48:46.530Z,14.07
2018-06-03T06:51:13.978Z,15.63
2018-06-03T06:53:42.479Z,16.48
2018-06-03T06:56:09.930Z,10.43
2018-06-03T06:58:38.212Z,14.80
2018-06-03T07:01:05.735Z,11.73
2018-06-03T07:03:33.182Z,14.93
2018-06-03T07:06:00.623Z,11.40
2018-06-03T07:08:30.603Z,14.13
2018-06-03T07:10:58.826Z,15.70
2018-06-03T07:13:26.270Z,5.43
2018-06-03T07:15:54.551Z,9.68
2018-06-03T07:18:22.786Z,14.20
2018-06-03T07:20:50.229Z,8.55
2018-06-03T07:23:17.923Z,8.45
2018-06-03T07:25:45.332Z,11.82
2018-06-03T07:28:12.806Z,11.63
2018-06-03T07:30:41.099Z,7.47
2018-06-03T07:33:08.571Z,9.25
2018-06-03T07:35:36.013Z,9.02
2018-06-03T07:38:03.495Z,6.50
2018-06-03T07:40:31.031Z,8.00
2018-06-03T07:42:58.497Z,9.10
2018-06-03T07:45:26.070Z,11.60
2018-06-03T07:47:53.524Z,6.20
2018-06-03T07:50:21.020Z,9.43
2018-06-03T07:53:18.020Z,7.90
2018-06-03T07:55:46.257Z,8.30
2018-06-03T07:58:14.502Z,9.30
2018-06-03T08:00:43.371Z,5.03
2018-06-03T08:03:11.585Z,6.20
2018-06-03T08:05:39.915Z,7.15
2018-06-03T08:08:10.334Z,9.08
2018-06-03T08:10:38.787Z,9.43
2018-06-03T08:13:07.103Z,7.28
2018-06-03T08:15:35.458Z,4.67
2018-06-03T08:18:03.691Z,5.95
2018-06-03T08:20:31.920Z,6.20
2018-06-03T08:23:00.178Z,3.52
2018-06-03T08:25:28.677Z,5.58
2018-06-03T08:27:57.050Z,5.33
2018-06-03T08:30:26.683Z,4.90
2018-06-03T08:32:55.012Z,3.98
2018-06-03T08:35:23.341Z,3.65
2018-06-03T08:37:52.323Z,5.25
2018-06-03T08:40:20.559Z,7.15
2018-06-03T08:42:48.874Z,3.98
2018-06-03T08:45:21.052Z,3.12
2018-06-03T08:47:49.362Z,4.55
2018-06-03T08:50:18.007Z,4.62
2018-06-03T08:52:46.350Z,4.72
2018-06-03T08:55:14.672Z,4.92
2018-06-03T08:57:42.992Z,5.70
2018-06-03T09:00:11.435Z,5.62
2018-06-03T09:02:39.670Z,5.90
2018-06-03T09:05:08.280Z,2.60
2018-06-03T09:07:38.108Z,3.98
2018-06-03T09:10:06.256Z,5.45
2018-06-03T09:12:35.156Z,2.90
2018-06-03T09:15:03.430Z,4.47
2018-06-03T09:17:31.698Z,3.12
2018-06-03T09:20:00.203Z,4.72
2018-06-03T09:22:28.456Z,3.60
2018-06-03T09:24:56.767Z,4.53
2018-06-03T09:27:26.546Z,4.05
2018-06-03T09:29:54.855Z,3.80
2018-06-03T09:32:23.126Z,3.52
2018-06-03T09:34:52.115Z,5.05
2018-06-03T09:37:20.487Z,2.30
2018-06-03T09:39:48.721Z,2.52
2018-06-03T09:42:17.004Z,3.85
2018-06-03T09:44:45.226Z,3.45
2018-06-03T09:47:13.459Z,2.92
2018-06-03T09:49:42.477Z,4.05
2018-06-03T09:52:10.790Z,2.33
2018-06-03T09:54:39.030Z,3.25
2018-06-03T09:57:10.086Z,2.87
2018-06-03T09:59:38.319Z,2.45
2018-06-03T10:02:06.651Z,3.12
2018-06-03T10:04:35.734Z,3.45
2018-06-03T10:07:03.980Z,4.53
2018-06-03T10:09:34.774Z,2.50
2018-06-03T10:12:03.037Z,4.20
2018-06-03T10:14:31.502Z,2.90
2018-06-03T10:16:59.812Z,3.12
2018-06-03T10:19:28.039Z,3.85
2018-06-03T10:21:56.308Z,2.65
2018-06-03T10:24:25.027Z,2.62
2018-06-03T10:26:53.289Z,4.17
2018-06-03T10:29:21.503Z,4.08
2018-06-03T10:31:50.052Z,2.30
2018-06-03T10:34:18.280Z,2.77
2018-06-03T10:36:46.495Z,3.27
2018-06-03T10:39:15.397Z,4.00
2018-06-03T10:41:43.726Z,2.95
2018-06-03T10:44:12.056Z,2.55
2018-06-03T10:46:40.522Z,2.45
2018-06-03T10:49:08.822Z,2.58
2018-06-03T10:51:37.076Z,2.77
2018-06-03T10:54:05.874Z,2.70
2018-06-03T10:56:34.176Z,3.00
2018-06-03T10:59:02.436Z,1.90
2018-06-03T11:01:30.708Z,2.10
2018-06-03T11:03:58.971Z,2.22
2018-06-03T11:06:27.287Z,3.58
2018-06-03T11:08:55.951Z,2.58
2018-06-03T11:11:24.223Z,2.67
2018-06-03T11:13:52.473Z,2.25
2018-06-03T11:16:21.899Z,2.10
2018-06-03T11:18:50.183Z,1.87
2018-06-03T11:21:18.488Z,2.05
2018-06-03T11:23:47.062Z,2.00
2018-06-03T11:26:15.307Z,2.22
2018-06-03T11:28:43.563Z,5.33
2018-06-03T11:31:12.095Z,1.90
2018-06-03T11:33:40.335Z,2.33
2018-06-03T11:36:08.580Z,3.50
2018-06-03T11:38:37.216Z,4.92
2018-06-03T11:41:05.657Z,5.37
2018-06-03T11:43:33.911Z,5.65
2018-06-03T11:46:02.445Z,5.25
2018-06-03T11:48:30.667Z,7.25
2018-06-03T11:50:58.926Z,5.55
2018-06-03T11:53:30.762Z,5.22
2018-06-03T11:55:59.019Z,5.25
2018-06-03T11:58:53.513Z,6.03
2018-06-03T12:01:21.856Z,2.62
2018-06-03T12:03:50.166Z,7.28
2018-06-03T12:06:18.772Z,4.35
2018-06-03T12:08:51.965Z,3.92
2018-06-03T12:11:20.828Z,3.80
2018-06-03T12:13:49.086Z,6.62
2018-06-03T12:16:17.300Z,7.05
2018-06-03T12:18:46.403Z,6.35
2018-06-03T12:21:14.652Z,4.22
2018-06-03T12:23:42.870Z,8.13
2018-06-03T12:26:12.476Z,4.33
2018-06-03T12:28:40.778Z,5.92
2018-06-03T12:31:08.950Z,18.07
2018-06-03T12:33:37.407Z,11.73
2018-06-03T12:36:05.721Z,14.87
2018-06-03T12:38:33.904Z,20.30
2018-06-03T12:41:02.848Z,17.70
2018-06-03T12:43:31.107Z,19.15
2018-06-03T12:45:59.374Z,17.85
2018-06-03T12:48:27.891Z,19.27
2018-06-03T12:50:56.167Z,19.87
2018-06-03T12:53:24.424Z,22.60
2018-06-03T12:55:53.039Z,15.78
2018-06-03T12:58:21.278Z,15.43
2018-06-03T13:00:49.539Z,18.12
2018-06-03T13:03:18.874Z,15.48
2018-06-03T13:05:47.162Z,17.67
2018-06-03T13:08:16.860Z,21.68
2018-06-03T13:10:45.203Z,15.98
2018-06-03T13:13:13.462Z,19.80
2018-06-03T13:15:41.898Z,14.47
2018-06-03T13:18:10.190Z,14.80
2018-06-03T13:20:38.395Z,17.95
2018-06-03T13:23:07.138Z,18.17
2018-06-03T13:25:35.392Z,12.85
2018-06-03T13:28:03.804Z,16.37
2018-06-03T13:30:32.280Z,17.70
2018-06-03T13:33:00.523Z,15.72
2018-06-03T13:35:28.870Z,18.23
2018-06-03T13:37:57.218Z,15.48
2018-06-03T13:40:25.488Z,16.70
2018-06-03T13:42:53.811Z,14.30
2018-06-03T13:45:23.058Z,15.18
2018-06-03T13:47:51.478Z,11.60
2018-06-03T13:50:19.716Z,11.88
2018-06-03T13:52:48.070Z,15.03
2018-06-03T13:55:16.363Z,12.00
2018-06-03T13:57:44.667Z,13.22
2018-06-03T14:00:13.233Z,13.20
2018-06-03T14:02:41.555Z,11.10
2018-06-03T14:05:09.818Z,14.20
2018-06-03T14:07:40.258Z,9.05
2018-06-03T14:10:08.714Z,9.05
2018-06-03T14:12:36.960Z,11.88
2018-06-03T14:15:05.292Z,10.03
2018-06-03T14:17:33.527Z,9.80
2018-06-03T14:20:01.843Z,10.72
2018-06-03T14:22:30.107Z,8.08
2018-06-03T14:24:58.347Z,15.38
2018-06-03T14:27:26.593Z,10.48
2018-06-03T14:29:55.730Z,10.03
2018-06-03T14:32:23.938Z,10.65
2018-06-03T14:34:52.239Z,9.15
2018-06-03T14:37:20.531Z,8.33
2018-06-03T14:39:48.754Z,10.48
2018-06-03T14:42:17.060Z,9.43
2018-06-03T14:44:45.504Z,9.23
2018-06-03T14:47:13.750Z,10.23
2018-06-03T14:49:42.227Z,10.93
2018-06-03T14:52:10.740Z,9.28
2018-06-03T14:54:39.163Z,9.08
2018-06-03T14:57:07.463Z,9.98
2018-06-03T14:59:36.986Z,8.53
2018-06-03T15:02:05.223Z,8.83
2018-06-03T15:04:33.494Z,8.50
2018-06-03T15:07:02.505Z,12.50
2018-06-03T15:09:31.795Z,9.05
2018-06-03T15:12:00.121Z,10.00
2018-06-03T15:14:28.415Z,7.50
2018-06-03T15:16:56.654Z,7.47
2018-06-03T15:19:24.923Z,8.70
2018-06-03T15:21:53.703Z,8.28
2018-06-03T15:24:21.960Z,8.20
2018-06-03T15:26:50.207Z,6.10
2018-06-03T15:29:18.999Z,7.60
2018-06-03T15:31:47.232Z,6.08
2018-06-03T15:34:15.482Z,8.58
2018-06-03T15:36:44.123Z,7.12
2018-06-03T15:39:12.456Z,10.45
2018-06-03T15:41:40.780Z,6.80
2018-06-03T15:44:09.253Z,6.83
2018-06-03T15:46:37.496Z,6.28
2018-06-03T15:49:05.741Z,6.05
2018-06-03T15:51:35.545Z,7.40
2018-06-03T15:54:04.158Z,8.30
2018-06-03T15:56:32.380Z,7.55
2018-06-03T15:59:00.996Z,6.78
2018-06-03T16:01:29.264Z,6.22
2018-06-03T16:03:57.480Z,6.62
2018-06-03T16:06:26.027Z,6.33
2018-06-03T16:08:56.034Z,7.25
2018-06-03T16:11:24.515Z,7.08
2018-06-03T16:13:53.934Z,11.93
2018-06-03T16:16:22.239Z,7.47
2018-06-03T16:18:50.507Z,6.90
2018-06-03T16:21:19.275Z,5.47
2018-06-03T16:23:47.544Z,7.17
2018-06-03T16:26:16.219Z,5.67
2018-06-03T16:28:45.638Z,6.28
2018-06-03T16:31:13.890Z,5.72
2018-06-03T16:33:42.306Z,6.60
2018-06-03T16:36:10.862Z,7.15
2018-06-03T16:38:39.200Z,5.95
2018-06-03T16:41:07.455Z,7.15
2018-06-03T16:43:35.996Z,7.55
2018-06-03T16:46:04.301Z,6.22
2018-06-03T16:48:32.620Z,5.60
2018-06-03T16:51:01.747Z,6.33
2018-06-03T16:53:30.119Z,4.80
2018-06-03T16:55:58.394Z,5.95
2018-06-03T16:58:27.212Z,5.33
2018-06-03T17:00:55.527Z,5.17
2018-06-03T17:03:23.783Z,4.58
2018-06-03T17:05:53.219Z,7.97
2018-06-03T17:08:25.222Z,4.92
2018-06-03T17:10:53.869Z,5.80
2018-06-03T17:13:22.131Z,5.85
2018-06-03T17:15:50.562Z,9.88
2018-06-03T17:18:19.348Z,8.48
2018-06-03T17:20:47.706Z,10.48
2018-06-03T17:23:15.943Z,13.83
2018-06-03T17:25:45.124Z,9.95
2018-06-03T17:28:13.675Z,7.92
2018-06-03T17:30:41.946Z,10.18
2018-06-03T17:33:10.402Z,14.18
2018-06-03T17:35:38.662Z,16.65
2018-06-03T17:38:06.918Z,8.13
2018-06-03T17:40:35.373Z,9.98
2018-06-03T17:43:03.621Z,11.03
2018-06-03T17:45:31.888Z,11.25
2018-06-03T17:48:00.252Z,13.90
2018-06-03T17:50:28.738Z,10.25
2018-06-03T17:52:56.982Z,14.63
2018-06-03T17:55:26.587Z,9.23
2018-06-03T17:57:54.831Z,11.28
2018-06-03T18:00:23.088Z,11.70
2018-06-03T18:02:57.143Z,9.35
2018-06-03T18:05:25.396Z,7.72
2018-06-03T18:07:55.835Z,8.50
2018-06-03T18:10:24.123Z,10.68
2018-06-03T18:12:52.367Z,12.70
2018-06-03T18:15:20.775Z,9.08
2018-06-03T18:17:49.033Z,9.73
2018-06-03T18:20:17.314Z,8.08
2018-06-03T18:22:45.631Z,7.62
2018-06-03T18:25:13.868Z,6.87
2018-06-03T18:27:42.136Z,9.20
2018-06-03T18:30:10.738Z,6.08
2018-06-03T18:32:38.987Z,4.28
2018-06-03T18:35:07.280Z,5.33
2018-06-03T18:37:36.498Z,12.47
2018-06-03T18:40:04.744Z,6.08
2018-06-03T18:42:33.165Z,6.35
2018-06-03T18:45:01.870Z,5.28
2018-06-03T18:47:30.179Z,4.85
2018-06-03T18:49:58.483Z,5.65
2018-06-03T18:52:27.695Z,5.17
2018-06-03T18:54:55.938Z,4.78
2018-06-03T18:57:24.172Z,4.00
2018-06-03T18:59:53.010Z,5.28
2018-06-03T19:02:21.248Z,6.87
2018-06-03T19:04:49.490Z,5.12
2018-06-03T19:07:17.854Z,6.35
2018-06-03T19:09:49.403Z,5.92
2018-06-03T19:12:17.652Z,5.97
2018-06-03T19:14:49.536Z,5.17
2018-06-03T19:17:17.851Z,4.20
2018-06-03T19:19:46.126Z,5.85
2018-06-03T19:22:14.410Z,3.45
2018-06-03T19:24:42.812Z,5.53
2018-06-03T19:27:11.069Z,4.35
2018-06-03T19:29:39.628Z,3.55
2018-06-03T19:32:07.861Z,5.10
2018-06-03T19:34:36.139Z,5.45
2018-06-03T19:37:04.499Z,3.02
2018-06-03T19:39:32.766Z,3.62
2018-06-03T19:42:01.017Z,2.85
2018-06-03T19:44:29.500Z,3.17
2018-06-03T19:46:57.730Z,3.65
2018-06-03T19:49:26.039Z,3.17
2018-06-03T19:51:55.203Z,3.52
2018-06-03T19:54:23.468Z,3.80
2018-06-03T19:56:51.715Z,4.55
2018-06-03T19:59:20.079Z,5.78
2018-06-03T20:01:48.355Z,6.00
2018-06-03T20:04:16.789Z,3.77
2018-06-03T20:06:49.315Z,3.27
2018-06-03T20:09:18.706Z,1.70
2018-06-03T20:11:47.345Z,4.50
2018-06-03T20:14:15.573Z,2.52
2018-06-03T20:16:43.913Z,3.47
2018-06-03T20:19:12.527Z,2.02
2018-06-03T20:21:40.978Z,2.52
2018-06-03T20:24:09.216Z,3.42
2018-06-03T20:26:38.178Z,3.00
2018-06-03T20:29:06.535Z,5.28
2018-06-03T20:31:34.896Z,2.58
2018-06-03T20:34:03.294Z,2.33
2018-06-03T20:36:31.526Z,2.87
2018-06-03T20:38:59.505Z,4.83
2018-06-03T20:41:27.530Z,3.65
2018-06-03T20:43:55.783Z,2.52
2018-06-03T20:46:24.139Z,1.95
2018-06-03T20:48:53.811Z,3.90
2018-06-03T20:51:22.060Z,2.98
2018-06-03T20:53:50.304Z,2.12
2018-06-03T20:56:18.783Z,2.87
2018-06-03T20:58:47.123Z,2.35
2018-06-03T21:01:15.382Z,2.15
2018-06-03T21:03:43.938Z,2.17
2018-06-03T21:06:12.260Z,2.17
2018-06-03T21:08:41.748Z,2.67
2018-06-03T21:11:10.063Z,3.10
2018-06-03T21:13:38.372Z,2.02
2018-06-03T21:16:06.632Z,2.77
2018-06-03T21:18:35.178Z,2.02
2018-06-03T21:21:03.540Z,2.20
2018-06-03T21:23:31.779Z,1.77
2018-06-03T21:26:01.441Z,4.45
2018-06-03T21:28:29.690Z,1.95
2018-06-03T21:30:57.946Z,2.47
2018-06-03T21:33:26.275Z,1.90
2018-06-03T21:35:54.558Z,2.00
2018-06-03T21:38:22.803Z,2.08
2018-06-03T21:40:51.176Z,1.50
2018-06-03T21:43:19.411Z,1.77
2018-06-03T21:45:47.631Z,2.37
2018-06-03T21:48:16.635Z,2.25
2018-06-03T21:50:44.876Z,3.98
2018-06-03T21:53:13.312Z,1.87
2018-06-03T21:55:42.086Z,2.37
2018-06-03T21:58:10.336Z,1.60
2018-06-03T22:00:38.567Z,1.72
2018-06-03T22:03:07.019Z,1.57
2018-06-03T22:05:35.413Z,1.77
2018-06-03T22:08:06.857Z,2.30
2018-06-03T22:10:35.133Z,2.27
2018-06-03T22:13:03.392Z,2.50
2018-06-03T22:15:31.732Z,1.77
2018-06-03T22:17:59.952Z,2.08
2018-06-03T22:20:28.346Z,1.50
2018-06-03T22:22:56.780Z,2.35
2018-06-03T22:25:25.033Z,1.60
2018-06-03T22:27:53.271Z,2.45
2018-06-03T22:30:22.354Z,2.17
2018-06-03T22:32:50.625Z,1.80
2018-06-03T22:35:18.843Z,2.15
2018-06-03T22:37:47.505Z,1.30
2018-06-03T22:40:15.835Z,1.60
2018-06-03T22:42:44.082Z,1.45
2018-06-03T22:45:12.534Z,1.82
2018-06-03T22:47:40.850Z,1.50
2018-06-03T22:50:09.090Z,1.50
2018-06-03T22:52:38.085Z,2.85
2018-06-03T22:55:06.313Z,1.57
2018-06-03T22:57:52.974Z,2.47
2018-06-03T23:00:30.291Z,2.35
2018-06-03T23:03:04.571Z,2.42
2018-06-03T23:05:32.807Z,1.92
2018-06-03T23:08:04.166Z,1.20
2018-06-03T23:10:32.807Z,2.95
2018-06-03T23:13:01.039Z,1.72
2018-06-03T23:15:29.341Z,1.37
2018-06-03T23:17:57.858Z,1.32
2018-06-03T23:20:26.110Z,1.52
2018-06-03T23:22:54.426Z,2.10
2018-06-03T23:25:22.730Z,2.00
2018-06-03T23:27:50.963Z,1.55
2018-06-03T23:30:19.512Z,1.27
2018-06-03T23:32:47.819Z,1.50
2018-06-03T23:35:16.134Z,1.57
2018-06-03T23:37:44.446Z,1.40
2018-06-03T23:40:12.671Z,1.30
2018-06-03T23:42:41.051Z,1.65
2018-06-03T23:45:09.323Z,1.42
2018-06-03T23:47:37.562Z,1.75
2018-06-03T23:50:05.783Z,1.45
2018-06-03T23:52:34.615Z,1.62
2018-06-03T23:55:02.841Z,1.20
2018-06-03T23:57:31.122Z,1.22
2018-06-03T23:59:59.450Z,1.85
